PWSweather.com
Personal Weather Stations
Station Observations
FAUSKE
Nordland, Norway, FauskeNO 8200

Nordland, NorwayFauskeNO 8200

Lat: 67.2607586, Lon: 15.4114204

Elevation: 40

Station Type: Davis Vantage PRO2

http://www.bjornli.net/weather.html

Latest ConditionsUpdated 9:30:12 AM GMT+01:01 Monday, Aug 26, 2019
Currently Today's Max Today's Min Today's Average
Temperature 53.7°F12.1°C 53.7°F12.1°C 52.7°F11.5°C 53.3°F11.8°C
Dew Point 52.3°F11.3°C 52.8°F11.6°C 51.7°F10.9°C 52.2°F11.2°C
Winds Calm Calm 4.0 mph -6.4 kmh - - 0.3 mph 0.5 kmh
Wind Gusts -- 14.0 mph22.5 kmh - -
Humidity 95% 97% 95% 96%
Pressure 30.02 in1016.6 mb 30.02 in1016.6 mb 29.89 in1012.2 mb -
Hour Temp Dew Point Humidity Winds Wind Gusts Pressure Precip Precip Rate Daily Precip Total
09:30 AM 53.7°F12.1°C 52.3°F11.3°C 95% Calm Calm -- 30.02 in1016.6 mb 0.00 in0.0 mm 0.00 in0.0 mm 0.33 in8.4 mm
09:10 AM 53.7°F12.1°C 52.3°F11.3°C 95% Calm Calm -- 30.01 in1016.3 mb 0.00 in0.0 mm 0.00 in0.0 mm 0.33 in8.4 mm
09:00 AM 53.7°F12.1°C 52.3°F11.3°C 95% Calm Calm -- 30.01 in1016.3 mb 0.00 in0.0 mm 0.00 in0.0 mm 0.33 in8.4 mm
08:40 AM 53.7°F12.1°C 52.3°F11.3°C 95% Calm Calm -- 30.00 in1015.9 mb 0.00 in0.0 mm 0.00 in0.0 mm 0.33 in8.4 mm
08:30 AM 53.7°F12.1°C 52.3°F11.3°C 95% Calm Calm -- 30.00 in1015.9 mb 0.00 in0.0 mm 0.00 in0.0 mm 0.33 in8.4 mm
08:10 AM 53.7°F12.1°C 52.3°F11.3°C 95% Calm Calm -- 30.00 in1015.9 mb 0.00 in0.0 mm 0.00 in0.0 mm 0.33 in8.4 mm
08:00 AM 53.7°F12.1°C 52.3°F11.3°C 95% Calm Calm -- 29.99 in1015.6 mb 0.00 in0.0 mm 0.00 in0.0 mm 0.33 in8.4 mm
07:40 AM 53.7°F12.1°C 52.3°F11.3°C 95% Calm Calm -- 29.99 in1015.6 mb 0.00 in0.0 mm 0.00 in0.0 mm 0.33 in8.4 mm
07:30 AM 53.7°F12.1°C 52.3°F11.3°C 95% Calm Calm -- 29.99 in1015.6 mb 0.00 in0.0 mm 0.00 in0.0 mm 0.33 in8.4 mm
07:10 AM 53.7°F12.1°C 52.3°F11.3°C 95% Calm Calm -- 29.99 in1015.6 mb 0.00 in0.0 mm 0.00 in0.0 mm 0.33 in8.4 mm
07:00 AM 53.7°F12.1°C 52.3°F11.3°C 95% Calm Calm -- 29.98 in1015.2 mb 0.00 in0.0 mm 0.00 in0.0 mm 0.33 in8.4 mm
06:40 AM 53.6°F12.0°C 52.2°F11.2°C 95% Calm Calm -- 29.98 in1015.2 mb 0.00 in0.0 mm 0.00 in0.0 mm 0.33 in8.4 mm
06:30 AM 53.6°F12.0°C 52.2°F11.2°C 95% Calm Calm -- 29.98 in1015.2 mb 0.00 in0.0 mm 0.00 in0.0 mm 0.33 in8.4 mm
06:10 AM 53.5°F11.9°C 52.1°F11.2°C 95% Calm Calm -- 29.97 in1014.9 mb 0.00 in0.0 mm 0.00 in0.0 mm 0.33 in8.4 mm
06:00 AM 53.4°F11.9°C 52.3°F11.3°C 96% Calm Calm -- 29.97 in1014.9 mb 0.00 in0.0 mm 0.00 in0.0 mm 0.33 in8.4 mm
05:40 AM 53.0°F11.7°C 51.9°F11.1°C 96% Calm Calm 11.0 mph17.7 kmh 29.97 in1014.9 mb 0.00 in0.0 mm 0.00 in0.0 mm 0.33 in8.4 mm
05:30 AM 52.8°F11.6°C 51.7°F10.9°C 96% 3.0 mph WSW4.8 kmh WSW 3.0 mph4.8 kmh 29.96 in1014.6 mb 0.00 in0.0 mm 0.00 in0.0 mm 0.33 in8.4 mm
05:09 AM 52.7°F11.5°C 51.9°F11.1°C 97% Calm Calm 7.0 mph11.3 kmh 29.96 in1014.6 mb 0.00 in0.0 mm 0.00 in0.0 mm 0.33 in8.4 mm
05:00 AM 52.7°F11.5°C 51.9°F11.1°C 97% Calm Calm -- 29.96 in1014.6 mb 0.00 in0.0 mm 0.00 in0.0 mm 0.33 in8.4 mm
04:40 AM 52.7°F11.5°C 51.9°F11.1°C 97% Calm Calm -- 29.95 in1014.2 mb 0.00 in0.0 mm 0.00 in0.0 mm 0.33 in8.4 mm
04:30 AM 52.8°F11.6°C 52.0°F11.1°C 97% Calm Calm -- 29.95 in1014.2 mb 0.00 in0.0 mm 0.00 in0.0 mm 0.33 in8.4 mm
04:10 AM 52.8°F11.6°C 52.0°F11.1°C 97% Calm Calm -- 29.95 in1014.2 mb 0.00 in0.0 mm 0.00 in0.0 mm 0.33 in8.4 mm
04:00 AM 52.8°F11.6°C 52.0°F11.1°C 97% Calm Calm -- 29.94 in1013.9 mb 0.00 in0.0 mm 0.00 in0.0 mm 0.33 in8.4 mm
03:40 AM 52.9°F11.6°C 52.1°F11.2°C 97% Calm Calm 5.0 mph8.0 kmh 29.94 in1013.9 mb 0.00 in0.0 mm 0.00 in0.0 mm 0.33 in8.4 mm
03:30 AM 52.9°F11.6°C 52.1°F11.2°C 97% Calm Calm -- 29.94 in1013.9 mb 0.00 in0.0 mm 0.00 in0.0 mm 0.33 in8.4 mm
03:10 AM 52.9°F11.6°C 52.1°F11.2°C 97% 1.0 mph SW1.6 kmh SW 9.0 mph14.5 kmh 29.94 in1013.9 mb 0.02 in0.5 mm 0.00 in0.0 mm 0.33 in8.4 mm
03:00 AM 53.0°F11.7°C 52.2°F11.2°C 97% Calm Calm -- 29.94 in1013.9 mb 0.02 in0.5 mm 0.00 in0.0 mm 0.33 in8.4 mm
02:40 AM 53.1°F11.7°C 52.3°F11.3°C 97% Calm Calm -- 29.93 in1013.5 mb 0.06 in1.5 mm 0.00 in0.0 mm 0.33 in8.4 mm
02:30 AM 53.1°F11.7°C 52.3°F11.3°C 97% Calm Calm -- 29.93 in1013.5 mb 0.06 in1.5 mm 0.00 in0.0 mm 0.33 in8.4 mm
02:10 AM 53.1°F11.7°C 52.3°F11.3°C 97% Calm Calm 11.0 mph17.7 kmh 29.92 in1013.2 mb 0.09 in2.3 mm 0.00 in0.0 mm 0.33 in8.4 mm
02:00 AM 53.2°F11.8°C 52.4°F11.3°C 97% Calm Calm -- 29.92 in1013.2 mb 0.09 in2.3 mm 0.00 in0.0 mm 0.33 in8.4 mm
01:40 AM 53.4°F11.9°C 52.6°F11.4°C 97% 4.0 mph W6.4 kmh W 13.0 mph20.9 kmh 29.91 in1012.9 mb 0.12 in3.0 mm 0.06 in1.5 mm 0.33 in8.4 mm
01:30 AM 53.4°F11.9°C 52.6°F11.4°C 97% 3.0 mph SW4.8 kmh SW 5.0 mph8.0 kmh 29.91 in1012.9 mb 0.11 in2.8 mm 0.00 in0.0 mm 0.32 in8.1 mm
01:10 AM 53.6°F12.0°C 52.8°F11.6°C 97% 1.0 mph WSW1.6 kmh WSW 14.0 mph22.5 kmh 29.91 in1012.9 mb 0.21 in5.3 mm 0.06 in1.5 mm 0.32 in8.1 mm
01:00 AM 53.6°F12.0°C 52.8°F11.6°C 97% 1.0 mph SSW1.6 kmh SSW 2.0 mph3.2 kmh 29.91 in1012.9 mb 0.20 in5.1 mm 0.00 in0.0 mm 0.31 in7.9 mm
12:40 AM 53.2°F11.8°C 52.4°F11.3°C 97% Calm Calm 4.0 mph6.4 kmh 29.90 in1012.5 mb 0.31 in7.9 mm 0.18 in4.6 mm 0.31 in7.9 mm
12:30 AM 53.2°F11.8°C 52.4°F11.3°C 97% Calm Calm -- 29.90 in1012.5 mb 0.28 in7.1 mm 0.03 in0.8 mm 0.28 in7.1 mm
12:10 AM 53.2°F11.8°C 52.4°F11.3°C 97% Calm Calm -- 29.89 in1012.2 mb 0.27 in6.9 mm 0.30 in7.6 mm 0.27 in6.9 mm
12:00 AM 53.3°F11.8°C 52.5°F11.4°C 97% Calm Calm -- 29.89 in1012.2 mb 0.22 in5.6 mm 0.00 in0.0 mm 0.22 in5.6 mm